createdAt,value
2019-02-15T17:41:35.786Z,101929.66
2019-02-15T17:44:03.467Z,101929.09
2019-02-15T17:46:30.874Z,101929.50
2019-02-15T17:49:00.714Z,101927.27
2019-02-15T17:51:28.213Z,101926.09
2019-02-15T17:53:55.779Z,101922.70
2019-02-15T17:56:23.514Z,101920.53
2019-02-15T17:58:51.079Z,101922.45
2019-02-15T18:01:19.438Z,101928.34
2019-02-15T18:03:46.612Z,101925.03
2019-02-15T18:06:14.007Z,101931.00
2019-02-15T18:08:41.534Z,101927.41
2019-02-15T18:11:09.086Z,101919.94
2019-02-15T18:13:37.734Z,101919.55
2019-02-15T18:16:05.692Z,101917.25
2019-02-15T18:18:33.489Z,101915.78
2019-02-15T18:21:01.018Z,101924.31
2019-02-15T18:23:28.805Z,101924.31
2019-02-15T18:25:56.354Z,101923.67
2019-02-15T18:28:23.714Z,101922.09
2019-02-15T18:30:51.450Z,101924.65
2019-02-15T18:33:19.441Z,101920.59
2019-02-15T18:35:47.207Z,101924.28
2019-02-15T18:38:14.965Z,101925.30
2019-02-15T18:40:42.535Z,101925.94
2019-02-15T18:43:10.360Z,101925.00
2019-02-15T18:45:38.070Z,101924.14
2019-02-15T18:48:05.772Z,101926.94
2019-02-15T18:50:33.544Z,101927.84
2019-02-15T18:53:01.280Z,101928.41
2019-02-15T18:55:29.158Z,101928.19
2019-02-15T18:57:56.766Z,101923.06
2019-02-15T19:00:24.911Z,101920.73
2019-02-15T19:02:52.037Z,101923.51
2019-02-15T19:05:19.739Z,101917.98
2019-02-15T19:07:47.082Z,101922.39
2019-02-15T19:10:16.530Z,101915.59
2019-02-15T19:12:44.088Z,101916.88
2019-02-15T19:15:13.270Z,101912.27
2019-02-15T19:17:40.646Z,101904.80
2019-02-15T19:20:09.399Z,101906.30
2019-02-15T19:22:37.061Z,101906.50
2019-02-15T19:25:06.162Z,101906.10
2019-02-15T19:27:33.762Z,101901.03
2019-02-15T19:30:01.427Z,101894.81
2019-02-15T19:32:29.227Z,101896.34
2019-02-15T19:34:56.705Z,101897.69
2019-02-15T19:37:23.990Z,101900.25
2019-02-15T19:39:51.785Z,101898.75
2019-02-15T19:42:21.200Z,101890.79
2019-02-15T19:44:48.524Z,101897.56
2019-02-15T19:47:15.706Z,101896.03
2019-02-15T19:49:43.536Z,101894.34
2019-02-15T19:52:11.036Z,101895.52
2019-02-15T19:54:38.283Z,101894.67
2019-02-15T19:57:06.199Z,101892.95
2019-02-15T19:59:33.883Z,101894.47
2019-02-15T20:02:01.165Z,101896.69
2019-02-15T20:04:29.106Z,101893.63
2019-02-15T20:06:56.387Z,101897.67
2019-02-15T20:09:24.173Z,101898.64
2019-02-15T20:11:51.309Z,101888.99
2019-02-15T20:14:18.809Z,101889.62
2019-02-15T20:16:46.075Z,101889.75
2019-02-15T20:19:13.657Z,101890.77
2019-02-15T20:21:41.247Z,101892.15
2019-02-15T20:24:08.347Z,101884.73
2019-02-15T20:26:36.233Z,101883.66
2019-02-15T20:29:04.347Z,101883.14
2019-02-15T20:31:31.634Z,101879.59
2019-02-15T20:33:59.338Z,101880.97
2019-02-15T20:36:26.944Z,101881.98
2019-02-15T20:38:55.189Z,101882.33
2019-02-15T20:41:22.659Z,101891.72
2019-02-15T20:43:49.954Z,101888.03
2019-02-15T20:46:17.677Z,101888.70
2019-02-15T20:48:48.661Z,101880.56
2019-02-15T20:51:16.921Z,101881.00
2019-02-15T20:53:44.397Z,101883.51
2019-02-15T20:56:11.786Z,101877.37
2019-02-15T20:58:39.196Z,101882.04
2019-02-15T21:01:07.027Z,101885.76
2019-02-15T21:03:34.331Z,101880.52
2019-02-15T21:06:01.993Z,101884.98
2019-02-15T21:08:29.527Z,101885.27
2019-02-15T21:10:57.074Z,101885.16
2019-02-15T21:13:24.786Z,101885.16
2019-02-15T21:15:52.933Z,101884.36
2019-02-15T21:18:20.671Z,101880.94
2019-02-15T21:20:48.488Z,101871.47
2019-02-15T21:23:16.106Z,101874.27
2019-02-15T21:25:43.573Z,101879.40
2019-02-15T21:28:11.406Z,101872.80
2019-02-15T21:30:38.710Z,101870.01
2019-02-15T21:33:06.543Z,101873.83
2019-02-15T21:35:33.916Z,101870.37
2019-02-15T21:38:01.917Z,101868.75
2019-02-15T21:40:29.320Z,101859.84
2019-02-15T21:42:57.125Z,101863.41
2019-02-15T21:45:24.835Z,101861.59
2019-02-15T21:47:52.746Z,101861.23
2019-02-15T21:50:20.240Z,101860.25
2019-02-15T21:52:48.119Z,101861.09
2019-02-15T21:55:15.571Z,101855.11
2019-02-15T21:57:43.075Z,101854.95
2019-02-15T22:00:13.134Z,101851.77
2019-02-15T22:02:40.483Z,101851.92
2019-02-15T22:05:07.977Z,101849.37
2019-02-15T22:07:35.897Z,101851.92
2019-02-15T22:10:04.153Z,101846.47
2019-02-15T22:12:35.823Z,101845.46
2019-02-15T22:15:03.665Z,101848.50
2019-02-15T22:17:31.363Z,101846.73
2019-02-15T22:19:58.764Z,101850.28
2019-02-15T22:22:26.140Z,101853.06
2019-02-15T22:24:53.587Z,101853.97
2019-02-15T22:27:21.188Z,101850.61
2019-02-15T22:29:48.627Z,101844.92
2019-02-15T22:32:16.576Z,101843.45
2019-02-15T22:34:44.606Z,101845.68
2019-02-15T22:37:12.107Z,101843.13
2019-02-15T22:39:39.540Z,101838.94
2019-02-15T22:42:07.187Z,101835.05
2019-02-15T22:44:34.605Z,101832.86
2019-02-15T22:47:01.861Z,101827.01
2019-02-15T22:49:29.650Z,101826.23
2019-02-15T22:51:56.881Z,101829.55
2019-02-15T22:54:24.147Z,101823.39
2019-02-15T22:56:55.252Z,101822.08
2019-02-15T22:59:22.804Z,101822.16
2019-02-15T23:01:50.723Z,101823.87
2019-02-15T23:04:18.267Z,101824.60
2019-02-15T23:06:46.236Z,101814.34
2019-02-15T23:09:24.755Z,101813.68
2019-02-15T23:11:52.797Z,101808.88
2019-02-15T23:14:20.153Z,101807.64
2019-02-15T23:16:47.476Z,101801.33
2019-02-15T23:19:15.534Z,101804.36
2019-02-15T23:21:42.778Z,101803.48
2019-02-15T23:24:11.329Z,101803.55
2019-02-15T23:26:38.936Z,101796.40
2019-02-15T23:29:06.978Z,101797.13
2019-02-15T23:31:34.676Z,101797.20
2019-02-15T23:34:02.244Z,101790.73
2019-02-15T23:36:30.149Z,101799.05
2019-02-15T23:39:02.063Z,101795.08
2019-02-15T23:41:29.831Z,101797.31
2019-02-15T23:43:58.000Z,101799.08
2019-02-15T23:46:25.548Z,101799.08
2019-02-15T23:48:52.856Z,101803.41
2019-02-15T23:51:20.850Z,101796.70
2019-02-15T23:53:48.465Z,101800.86
2019-02-15T23:56:15.945Z,101810.73
2019-02-15T23:58:43.482Z,101800.51
